x

Neah Bay, - 6nm North Of Cape Flattery, Wa (traffic Separation Lighted Buoy) (46087) Wave Buoy

4:50pm - Thu 31st Jul 2014 All times are PDT. -7 hours from GMT.

  • Sig Wave height 2.6ft
  • Swell Direction
  • Peak Period 6s
  • Average Period 4s
  • Wind
    11mph, 13mph gusts
  • Sea Temp 52°f
  • Air Temp 56°f
  • Sea Pressure 1019.2mb
  • Neah Bay, - 6nm North Of Cape Flattery, Wa     (traffic Separation Lighted Buoy)
  • Neah Bay, - 6nm North Of Cape Flattery, Wa     (traffic Separation Lighted Buoy)

More Historic Weather Station data

Upgrade to MSW Pro to gain access to the past 30 days of data for over 8000 Wavebouys and Weather Stations around the globe.

Join Pro

Comparision Forecast

View Surf forecast
   
Thu 07/31 4:50pm 2.5ft 6s 4s 11 13 mph 1019.2mb 52f 56f
3:50pm 3ft 6s 5s 11 13 mph 1019.7mb 53f 55f
3:20pm  -   -   -  9 11 mph 1019.9mb 52f 55f
2:50pm 2.5ft 6s 5s 9 11 mph 1019.9mb 52f 54f
2:20pm  -   -   -  9
mph
1020.4mb 53f 52f
1:50pm 3ft 7s 5s 7 9 mph 1020.5mb 52f 52f
1:20pm  -   -   -  7 9 mph 1020.6mb 52f 52f
12:50pm 3ft 6s 5s 7 9 mph 1020.7mb 52f 52f
12:20pm  -   -   -  7 9 mph 1020.7mb 53f 51f
11:50am 2.5ft 6s 6s 9
mph
1020.7mb 52f 51f
11:20am  -   -   -  4 7 mph 1020.7mb 52f 52f
10:50am 3ft 6s 6s 4 7 mph 1020.7mb 52f 53f
10:20am  -   -   -  4
mph
1020.7mb 52f 53f
9:50am 3ft 7s 6s 2
mph
1020.7mb 52f 53f
9:20am  -   -   -  4
mph
1020.9mb 52f 53f
8:50am 2.5ft 6s 6s 4 7 mph 1020.9mb 52f 53f
8:20am  -   -   -  4
mph
1021mb 52f 53f
7:50am 3ft 6s 5s 7
mph
1020.9mb 52f 53f
7:20am  -   -   -  9 11 mph 1020.8mb 52f 53f
6:50am 3ft 6s 5s 4 9 mph 1020.7mb 52f 52f
6:20am  -   -   -  4
mph
1020.5mb 52f 51f
5:50am 3ft 5s 5s 7
mph
1020.3mb 52f 51f
5:20am  -   -   -  7
mph
1020.2mb 51f 51f
4:50am 3ft 5s 5s 7
mph
1020.1mb 51f 51f
4:20am  -   -   -  7 9 mph 1020mb 51f 52f
3:50am 3ft 6s 5s 7 9 mph 1020mb 51f 53f
3:20am  -   -   -  7 9 mph 1020mb 51f 53f
2:50am 3.5ft 6s 5s 7 9 mph 1020.2mb 51f 53f
2:20am  -   -   -  4 7 mph 1020.3mb 51f 53f
1:50am 3.5ft 7s 5s 4 7 mph 1020.3mb 51f 53f
1:20am  -   -   -  4 7 mph 1020.5mb 51f 53f
12:50am 3.5ft 6s 5s 7 9 mph 1020.6mb 51f 53f
12:20am  -   -   -  7
mph
1020.6mb 52f 54f
Wed 07/30 11:50pm 3.5ft 5s 5s 4 7 mph 1020.6mb 52f 54f
11:20pm  -   -   -  7 9 mph 1020.5mb 52f 54f
10:50pm 3.5ft 6s 5s 11 13 mph 1020.2mb 52f 55f
10:20pm  -   -   -  9 13 mph 1020.3mb 52f 55f
9:50pm 3.5ft 7s 5s 16 20 mph 1020.2mb 52f 55f
9:20pm  -   -   -  16 20 mph 1020.1mb 53f 55f
8:50pm 3ft 6s 5s 13 18 mph 1020.4mb 53f 55f
8:20pm  -   -   -  13 16 mph 1020.5mb 53f 55f
7:50pm 3ft 7s 5s 13 16 mph 1020.8mb 52f 55f
7:20pm  -   -   -  13 16 mph 1021mb 52f 55f
6:50pm 3ft 6s 5s 13 18 mph 1021mb 53f 56f
6:20pm  -   -   -  13 16 mph 1021.1mb 53f 56f
5:50pm 3ft 6s 5s 11 13 mph 1021.4mb 52f 55f
5:20pm  -   -   -  13 16 mph 1021.4mb 52f 55f
4:50pm 3.5ft 6s 5s 11 13 mph 1021.5mb 52f 55f
4:20pm  -   -   -  9 11 mph 1021.7mb 52f 55f
3:50pm 3.5ft 6s 5s 11 13 mph 1021.8mb 52f 55f
3:20pm  -   -   -  11
mph
1021.9mb 52f 55f
2:50pm 3.5ft 6s 5s 11 13 mph 1022mb 52f 55f
2:20pm  -   -   -  11
mph
1022.1mb 52f 54f
1:50pm 3.5ft 6s 5s 11
mph
1022.2mb 52f 54f
1:20pm  -   -   -  11 13 mph 1022.1mb 52f 54f
12:50pm 3.5ft 7s 5s 11
mph
1022.1mb 52f 54f
12:20pm  -   -   -  9 11 mph 1022mb 52f 53f
11:50am 3.5ft 6s 6s 9 11 mph 1022mb 52f 53f
11:20am  -   -   -  7 9 mph 1022mb 52f 53f
10:50am 3ft 7s 6s 7
mph
1022.1mb 52f 53f
10:20am  -   -   -  7 9 mph 1022mb 52f 53f
9:50am 3.5ft 8s 6s 4
mph
1022mb 52f 53f
9:20am  -   -   -  7
mph
1022.1mb 52f 53f
8:50am 3.5ft 7s 6s  -  2 mph 1022mb 52f 53f
8:20am  -   -   -   -  2 mph 1022mb 52f 53f
7:50am 3.5ft 8s 6s 4
mph
1021.8mb 52f 53f
7:20am  -   -   -  9
mph
1021.6mb 52f 53f
6:50am 3ft 5s 5s 9 11 mph 1021.4mb 52f 53f
6:20am  -   -   -  9 13 mph 1021.1mb 52f 53f
5:50am 3.5ft 6s 5s 7 11 mph 1020.9mb 52f 54f
5:20am  -   -   -  9 11 mph 1020.8mb 52f 54f
4:50am 3.5ft 6s 5s 11 13 mph 1020.7mb 52f 54f
4:20am  -   -   -  11 13 mph 1020.5mb 52f 54f
3:50am 3.5ft 5s 5s 13
mph
1020.3mb 52f 54f
3:20am  -   -   -  13 16 mph 1020.3mb 52f 54f
2:50am 3.5ft 6s 5s 11 13 mph 1020.4mb 52f 55f
2:20am  -   -   -  11 13 mph 1020.6mb 52f 55f
1:50am 3.5ft 8s 5s 11 13 mph 1020.6mb 52f 55f
1:20am  -   -   -  7 9 mph 1020.6mb 52f 55f
12:50am 3.5ft 7s 5s 9 11 mph 1020.5mb 52f 55f
12:20am  -   -   -  9 11 mph 1020.4mb 52f 55f
Tue 07/29 11:50pm 3.5ft 7s 6s 7 9 mph 1020.3mb 52f 55f
11:20pm  -   -   -  2 4 mph 1020.5mb 52f 54f
10:50pm 3.5ft 8s 6s 4 7 mph 1020.5mb 53f 55f
10:20pm  -   -   -  2 4 mph 1020.6mb 53f 55f
9:50pm 3.5ft 8s 6s 4 9 mph 1020.4mb 53f 55f
9:20pm  -   -   -  11 13 mph 1020mb 53f 55f
8:50pm 3.5ft 8s 5s 13 16 mph 1019.8mb 53f 55f
8:20pm  -   -   -  16 18 mph 1019.4mb 53f 56f
7:50pm 3.5ft 8s 5s 9 13 mph 1019.9mb 53f 56f
7:20pm  -   -   -  13 16 mph 1019.9mb 53f 55f
6:50pm 3ft 8s 5s 18 20 mph 1019.8mb 53f 56f
6:20pm  -   -   -  11 16 mph 1020.3mb 53f 55f
5:50pm 3ft 7s 6s 13 16 mph 1020.5mb 53f 55f
5:20pm  -   -   -  13
mph
1020.7mb 53f 55f
4:50pm 3ft 8s 5s 13
mph
1021mb 53f 55f
4:20pm  -   -   -  11 13 mph 1021.2mb 53f 56f
3:50pm 2.5ft 8s 5s 13 16 mph 1021.3mb 53f 57f
3:20pm  -   -   -  13 16 mph 1021.4mb 53f 55f
2:50pm 2.5ft 8s 5s 13 16 mph 1021.4mb 53f 55f
2:20pm  -   -   -  13 16 mph 1021.6mb 53f 54f
1:50pm 2.5ft 6s 5s 13
mph
1021.8mb 52f 54f
1:20pm  -   -   -  11 13 mph 1021.9mb 52f 54f
12:50pm 2.5ft 7s 5s 11 13 mph 1021.9mb 52f 54f
12:20pm  -   -   -  11
mph
1022mb 52f 55f
11:50am 2.5ft 8s 6s 9
mph
1022mb 52f 54f
11:20am  -   -   -  11
mph
1022.1mb 52f 54f
10:50am 2.5ft 8s 6s 9 11 mph 1021.9mb 52f 54f
10:20am  -   -   -  9 11 mph 1021.8mb 52f 54f
9:50am 2.5ft 8s 6s 9 11 mph 1021.8mb 52f 54f
9:20am  -   -   -  7 9 mph 1021.8mb 52f 54f
8:50am 2.5ft 8s 6s 7 11 mph 1021.9mb 52f 54f
8:20am  -   -   -  7 9 mph 1021.7mb 52f 54f
7:50am 2.5ft 8s 6s 9 11 mph 1021.5mb 52f 53f
7:20am  -   -   -  9 11 mph 1021.3mb 52f 53f
6:50am 3ft 8s 6s 11
mph
1021mb 52f 53f
6:20am  -   -   -  9 11 mph 1020.9mb 52f 52f
5:50am 3ft 8s 5s 9 11 mph 1020.7mb 52f 53f
5:20am  -   -   -  9
mph
1020.5mb 52f 53f
4:50am 3ft 8s 5s 9 11 mph 1020.3mb 52f 53f
4:20am  -   -   -  9 11 mph 1020.2mb 52f 53f
3:50am 3.5ft 5s 5s 9 11 mph 1020.1mb 53f 53f
3:20am  -   -   -  11
mph
1019.9mb 52f 53f
2:50am 3ft 5s 5s 11 13 mph 1019.9mb 53f 53f
2:20am  -   -   -  11 13 mph 1019.9mb 53f 53f
1:50am 3.5ft 6s 5s 9 11 mph 1020mb 52f 53f
1:20am  -   -   -  11
mph
1020mb 53f 53f
12:50am 3.5ft 8s 5s 9 11 mph 1020.2mb 53f 53f
12:20am  -   -   -  9 11 mph 1020.2mb 53f 54f
Mon 07/28 11:50pm 3.5ft 5s 5s 9 11 mph 1020.2mb 53f 54f
11:20pm  -   -   -  11 13 mph 1020.2mb 53f 54f
10:50pm 4ft 6s 5s 11 13 mph 1020.2mb 53f 53f
10:20pm  -   -   -  9 11 mph 1020.2mb 53f 53f
9:50pm 4ft 6s 5s 11 13 mph 1020.3mb 53f 53f
9:20pm  -   -   -  9 13 mph 1020.3mb 54f 54f
8:50pm 4ft 6s 5s 13 16 mph 1019.9mb 53f 54f
8:20pm  -   -   -  11 13 mph 1020mb 54f 55f
7:50pm 4ft 5s 5s 13 16 mph 1019.9mb 54f 54f
7:20pm  -   -   -  16 18 mph 1019.9mb 54f 54f
6:50pm 3.5ft 8s 5s 11 13 mph 1020.1mb 54f 54f
6:20pm  -   -   -  13 16 mph 1020.2mb 54f 54f
5:50pm 3.5ft 8s 5s 11 13 mph 1020.4mb 54f 54f
5:20pm  -   -   -  13 16 mph 1020.7mb 54f 54f
4:50pm 3ft 8s 5s 9 11 mph 1020.8mb 53f 54f
4:20pm  -   -   -  13 16 mph 1020.7mb 54f 54f
3:50pm 3.5ft 8s 5s 9 11 mph 1021mb 53f 53f
3:20pm  -   -   -  11 13 mph 1021mb 53f 53f
2:50pm 3.5ft 8s 5s 9 11 mph 1021.2mb 53f 53f
2:20pm  -   -   -  9
mph
1021.3mb 53f 53f
1:50pm 3.5ft 8s 5s 9
mph
1021.4mb 53f 53f
1:20pm  -   -   -  9
mph
1021.5mb 53f 52f
12:50pm 3.5ft 5s 5s 9 11 mph 1021.3mb 53f 52f
12:20pm  -   -   -  9 11 mph 1021.1mb 53f 52f
11:50am 3.5ft 8s 6s 9
mph
1021.1mb 53f 52f
11:20am  -   -   -  9
mph
1021.1mb 52f 51f
10:50am 3.5ft 6s 6s 9
mph
1020.9mb 53f 51f
10:20am  -   -   -  9 11 mph 1020.9mb 53f 51f
9:50am 3.5ft 6s 6s 9 11 mph 1020.9mb 53f 51f
9:20am  -   -   -  7 9 mph 1021mb 53f 51f
8:50am 3.5ft 7s 6s 7
mph
1021.2mb 53f 51f
8:20am  -   -   -  7
mph
1021.1mb 52f 51f
7:50am 3.5ft 8s 6s 7 9 mph 1021mb 52f 51f
7:20am  -   -   -  7 9 mph 1020.9mb 53f 51f
6:50am 3.5ft 7s 6s 7 9 mph 1020.7mb 53f 51f
6:20am  -   -   -  4 7 mph 1020.6mb 53f 52f
5:50am 4.5ft 8s 6s 4 7 mph 1020.4mb 53f 51f
5:20am  -   -   -  9 11 mph 1020.2mb 53f 52f
4:50am 3.5ft 6s 6s 7 9 mph 1019.9mb 53f 51f
4:20am  -   -   -  7
mph
1019.8mb 53f 51f
3:50am 4.5ft 6s 6s 2 4 mph 1019.8mb 53f 52f
3:20am  -   -   -  4
mph
1019.8mb 53f 52f
2:50am 4.5ft 6s 6s 7
mph
1019.8mb 53f 53f
2:20am  -   -   -  7 9 mph 1019.7mb 53f 53f
1:50am 4ft 6s 5s 9
mph
1019.7mb 53f 54f
1:20am  -   -   -  9 11 mph 1019.9mb 54f 54f
12:50am 4.5ft 5s 5s 9 11 mph 1020.1mb 53f 55f